Domov               UVHVVR             MKGP            O straneh              
ZDRAVSTVENO VARSTVO RASTLIN
  MREŽA AGROMET. POSTAJ
 ► PROGNOSTIČNA OBVESTILA
AGROMETEOROLOŠKI PODATKI -
ARSO
OBVLADOVANJE TVEGANJ ZARADI
NEUGODNIH VREMENSKIH RAZMER
  ► NARAVNE NESREČE
  ► SUŠA/MOČA
  ► NAMAKANJE
  ► ŽLED (gozdarstvo)
KARTOGRAFSKI PRIKAZI
SPLETNE POVEZAVE
PROJEKTI IN PUBLIKACIJE

AGROMETEOROLOŠKA MREŽA: VREMENSKE POSTAJE IN FENOLOŠKA OPAZOVANJA

Pregled podatkov za lokacijo Braslovče (Pšaker), meteorološka postaja 39323

Pregled senzorjev na lokaciji

ID Ime Zadnja
vrednost
Datum in čas
zadnje
spremembe
(Lokalni čas)
Tip
senzorja
5111 Zračni tlak (hPa) 986 hPa 26.2.2021 10:30 BP1 500 - 1500 hPa
2041 Omočenost lista (U) 0 U 26.2.2021 10:30 A730WET
4947 Padavine (mm) 0 mm 26.2.2021 10:30 Generic 0.2 mm
1915 Relativna zračna vlaga (1,5 m) (%RH) 46 %RH 26.2.2021 10:30 50YA
1914 Temperatura (2 m) (°C) 13.4 °C 26.2.2021 10:30 50YA
5112 Hitrost vetra (2 m) (km/h) 3 km/h 26.2.2021 10:30 Generic 200 km/h

Pregled podatkov zadnjih 24 ur

Zap.
št.
Datum in čas
(Centralno
evropski čas)
Braslovče (Pšaker)
Zračni
tlak
Omočenost
lista
Padavine Relativna
zračna
vlaga
(1,5
m)
Temperatura
(2
m)
Hitrost
vetra
(2
m)
1 26.2.2021 10:30 986.4 0 0 45.8 13.4 2.8
2 26.2.2021 10:00 986.4 0 0 49.5 11.9 4.3
3 26.2.2021 09:30 986.4 0 0 52 10.9 4.5
4 26.2.2021 09:00 986.4 0 0 61.2 9 3
5 26.2.2021 08:30 986.9 10 0 75.3 5.8 3.7
6 26.2.2021 08:00 987.4 10 0 85.5 3 2.7
7 26.2.2021 07:30 987.4 10 0 86.9 2.2 1.5
8 26.2.2021 07:00 987.4 10 0 83 3 1.8
9 26.2.2021 06:30 987.2 10 0 84.5 2.9 2.1
10 26.2.2021 06:00 987.4 10 0 84.6 2.8 1.7
11 26.2.2021 05:30 987.4 10 0 85.3 2.9 1.9
12 26.2.2021 05:00 987.4 10 0 86.1 2.9 1.4
13 26.2.2021 04:30 987.4 10 0 88.1 2.8 0.7
14 26.2.2021 04:00 987.4 10 0 91 2.4 0.7
15 26.2.2021 03:30 987.4 10 0 91.8 2.4 0.3
16 26.2.2021 03:00 987.4 10 0 92.4 2.4 0.4
17 26.2.2021 02:30 987.7 10 0 92.6 2.5 0.8
18 26.2.2021 02:00 988.2 10 0 91.9 3 1.4
19 26.2.2021 01:30 988.5 10 0 92.5 3.2 0.9
20 26.2.2021 01:00 988.5 10 0 92.4 3.2 0.5
21 26.2.2021 00:30 988.5 10 0 93 3.2 0.9
22 26.2.2021 00:00 988.5 8 0 91.4 3.8 0.5
23 25.2.2021 23:30 988.5 7 0 89.8 4.4 1.9
24 25.2.2021 23:00 988.7 3 0 89.8 4.5 1.4
25 25.2.2021 22:30 988.7 2 0 87.5 5.3 1.1
26 25.2.2021 22:00 988.5 1 0 88.1 5.3 0.4
27 25.2.2021 21:30 988.5 0 0 85.8 5.8 0.5
28 25.2.2021 21:00 988.5 0 0 84.6 6.1 0.3
29 25.2.2021 20:30 988.5 0 0 79.7 7.2 0.9
30 25.2.2021 20:00 988.5 0 0 77.2 7.5 0
31 25.2.2021 19:30 988.5 0 0 74.7 8.1 0.4
32 25.2.2021 19:00 988.5 0 0 70.7 9.1 0.2
33 25.2.2021 18:30 987.9 0 0 64.2 10.8 0.7
34 25.2.2021 18:00 987.4 0 0 57.8 12.6 2.7
35 25.2.2021 17:30 987.4 0 0 59.5 12.8 2.1
36 25.2.2021 17:00 987.4 0 0 57.4 13.5 2.9
37 25.2.2021 16:30 987.4 0 0 53 14.8 3.5
38 25.2.2021 16:00 987.4 0 0 49.4 16.1 3.9
39 25.2.2021 15:30 987.4 0 0 42.3 18.5 3.4
40 25.2.2021 15:00 988.2 0 0 37 19.7 2.6
41 25.2.2021 14:30 988.5 0 0 37.5 18.9 3.5
42 25.2.2021 14:00 988.5 0 0 36.2 18.5 3.5
43 25.2.2021 13:30 988.7 0 0 35.1 18.1 3.9
44 25.2.2021 13:00 989.5 0 0 37.2 17.6 2.7
45 25.2.2021 12:30 989.7 0 0 39.2 16.6 3.6
46 25.2.2021 12:00 990.5 0 0 39.5 16.6 3.2
47 25.2.2021 11:30 990.5 0 0 43.7 15.3 3.2
48 25.2.2021 11:00 990.5 0 0 45.5 14.5 3.3
© 2011 Ministrstvo za kmetijstvo, gozdarstvo in prehrano. Vse pravice pridržane.